createdAt,value
2022-11-24T00:01:24.597Z,88.15
2022-11-24T00:03:56.450Z,87.79
2022-11-24T00:06:26.547Z,87.88
2022-11-24T00:08:54.741Z,87.64
2022-11-24T00:11:23.943Z,87.85
2022-11-24T00:13:51.805Z,87.76
2022-11-24T00:16:20.550Z,87.09
2022-11-24T00:18:49.380Z,86.37
2022-11-24T00:21:18.327Z,86.69
2022-11-24T00:23:47.802Z,86.85
2022-11-24T00:26:16.519Z,87.08
2022-11-24T00:28:44.989Z,86.94
2022-11-24T00:31:17.869Z,87.06
2022-11-24T00:33:46.272Z,87.41
2022-11-24T00:36:14.141Z,87.90
2022-11-24T00:38:41.948Z,87.84
2022-11-24T00:41:11.182Z,87.71
2022-11-24T00:43:39.025Z,87.25
2022-11-24T00:46:07.355Z,88.08
2022-11-24T00:48:35.663Z,87.85
2022-11-24T00:51:04.562Z,87.63
2022-11-24T00:53:32.708Z,87.44
2022-11-24T00:56:00.549Z,87.62
2022-11-24T00:58:29.909Z,87.50
2022-11-24T01:01:02.636Z,87.15
2022-11-24T01:03:30.648Z,87.02
2022-11-24T01:06:03.048Z,87.25
2022-11-24T01:08:31.041Z,87.20
2022-11-24T01:11:07.171Z,87.44
2022-11-24T01:13:36.743Z,87.20
2022-11-24T01:16:04.668Z,87.09
2022-11-24T01:18:32.537Z,86.68
2022-11-24T01:21:09.656Z,86.73
2022-11-24T01:23:38.304Z,87.69
2022-11-24T01:26:06.755Z,87.40
2022-11-24T01:28:34.866Z,88.14
2022-11-24T01:31:05.428Z,87.36
2022-11-24T01:33:33.881Z,87.50
2022-11-24T01:36:02.224Z,87.52
2022-11-24T01:38:30.452Z,87.19
2022-11-24T01:41:01.810Z,86.78
2022-11-24T01:43:29.825Z,87.14
2022-11-24T01:45:58.405Z,86.53
2022-11-24T01:48:29.104Z,86.75
2022-11-24T01:51:04.214Z,86.33
2022-11-24T01:53:32.282Z,86.32
2022-11-24T01:56:00.518Z,86.25
2022-11-24T01:58:31.620Z,85.45
2022-11-24T02:00:59.850Z,86.34
2022-11-24T02:03:32.033Z,86.29
2022-11-24T02:06:02.972Z,86.00
2022-11-24T02:08:33.685Z,85.94
2022-11-24T02:11:03.062Z,85.66
2022-11-24T02:13:31.063Z,85.05
2022-11-24T02:15:58.865Z,84.39
2022-11-24T02:18:26.990Z,84.90
2022-11-24T02:20:56.581Z,84.08
2022-11-24T02:23:25.439Z,84.38
2022-11-24T02:26:00.385Z,84.65
2022-11-24T02:28:30.552Z,84.53
2022-11-24T02:30:58.900Z,84.42
2022-11-24T02:33:27.467Z,84.22
2022-11-24T02:35:55.707Z,84.40
2022-11-24T02:38:30.342Z,84.05
2022-11-24T02:41:00.144Z,84.30
2022-11-24T02:43:29.847Z,84.34
2022-11-24T02:45:59.005Z,83.98
2022-11-24T02:48:26.964Z,83.88
2022-11-24T02:50:54.806Z,84.07
2022-11-24T02:53:22.764Z,83.74
2022-11-24T02:55:50.753Z,83.76
2022-11-24T02:58:18.518Z,83.90
2022-11-24T03:00:46.507Z,84.12
2022-11-24T03:03:15.741Z,83.97
2022-11-24T03:05:43.755Z,84.21
2022-11-24T03:08:12.865Z,84.49
2022-11-24T03:10:40.710Z,84.22
2022-11-24T03:13:08.812Z,84.11
2022-11-24T03:15:36.726Z,84.63
2022-11-24T03:18:04.799Z,84.66
2022-11-24T03:20:34.053Z,84.72
2022-11-24T03:23:01.918Z,83.59
2022-11-24T03:25:29.744Z,83.48
2022-11-24T03:27:58.229Z,83.29
2022-11-24T03:30:26.286Z,82.96
2022-11-24T03:32:54.396Z,82.46
2022-11-24T03:35:22.332Z,82.37
2022-11-24T03:37:51.581Z,82.04
2022-11-24T03:40:19.546Z,81.89
2022-11-24T03:42:47.513Z,82.45
2022-11-24T03:45:44.753Z,82.24
2022-11-24T03:48:04.130Z,82.40
2022-11-24T03:50:31.973Z,82.31
2022-11-24T03:53:01.196Z,82.38
2022-11-24T03:55:29.021Z,82.20
2022-11-24T03:57:56.831Z,82.06
2022-11-24T04:00:24.823Z,82.28
2022-11-24T04:02:52.747Z,82.39
2022-11-24T04:05:20.702Z,82.89
2022-11-24T04:07:48.751Z,82.80
2022-11-24T04:10:18.134Z,82.62
2022-11-24T04:12:45.103Z,82.17
2022-11-24T04:15:13.688Z,82.04
2022-11-24T04:17:41.565Z,81.44
2022-11-24T04:20:10.256Z,81.35
2022-11-24T04:22:38.125Z,81.00
2022-11-24T04:25:07.141Z,81.02
2022-11-24T04:27:37.190Z,80.48
2022-11-24T04:30:05.693Z,80.64
2022-11-24T04:32:33.508Z,80.14
2022-11-24T04:35:01.293Z,80.29
2022-11-24T04:37:29.420Z,80.19
2022-11-24T04:39:57.248Z,79.79
2022-11-24T04:42:25.050Z,80.28
2022-11-24T04:44:54.197Z,80.13
2022-11-24T04:47:22.720Z,80.26
2022-11-24T04:49:51.084Z,80.02
2022-11-24T04:52:19.491Z,81.61
2022-11-24T04:54:47.292Z,82.05
2022-11-24T04:57:16.541Z,82.87
2022-11-24T04:59:44.423Z,83.86
2022-11-24T05:02:13.855Z,84.69
2022-11-24T05:04:41.715Z,85.73
2022-11-24T05:07:17.681Z,86.27
2022-11-24T05:10:03.834Z,86.15
2022-11-24T05:12:32.037Z,87.31
2022-11-24T05:15:00.138Z,87.48
2022-11-24T05:17:31.051Z,87.34
2022-11-24T05:19:59.004Z,86.81
2022-11-24T05:22:28.809Z,87.67
2022-11-24T05:24:56.782Z,88.07
2022-11-24T05:27:25.131Z,87.75
2022-11-24T05:29:52.995Z,87.04
2022-11-24T05:32:20.814Z,88.11
2022-11-24T05:34:50.435Z,86.69
2022-11-24T05:37:18.557Z,86.44
2022-11-24T05:39:46.397Z,86.89
2022-11-24T05:42:31.945Z,86.84
2022-11-24T05:45:00.551Z,86.54
2022-11-24T05:47:28.431Z,87.11
2022-11-24T05:49:57.594Z,86.39
2022-11-24T05:52:25.425Z,86.05
2022-11-24T05:54:53.237Z,85.58
2022-11-24T05:57:21.240Z,84.54
2022-11-24T05:59:49.099Z,84.31
2022-11-24T06:02:17.031Z,84.28
2022-11-24T06:04:44.944Z,84.28
2022-11-24T06:07:14.320Z,83.91
2022-11-24T06:09:43.193Z,83.21
2022-11-24T06:12:11.794Z,83.31
2022-11-24T06:14:39.955Z,83.10
2022-11-24T06:17:07.901Z,83.18
2022-11-24T06:19:41.508Z,83.15
2022-11-24T06:22:09.969Z,83.03
2022-11-24T06:24:39.095Z,82.51
2022-11-24T06:27:07.613Z,82.37
2022-11-24T06:29:35.512Z,82.47
2022-11-24T06:32:03.374Z,82.14
2022-11-24T06:34:31.602Z,82.16
2022-11-24T06:36:59.611Z,81.85
2022-11-24T06:39:27.460Z,81.72
2022-11-24T06:41:56.612Z,81.81
2022-11-24T06:44:24.413Z,81.39
2022-11-24T06:46:52.315Z,81.38
2022-11-24T06:49:20.495Z,81.13
2022-11-24T06:51:48.288Z,81.47
2022-11-24T06:54:17.222Z,81.34
2022-11-24T06:56:45.016Z,81.09
2022-11-24T06:59:17.467Z,81.17
2022-11-24T07:01:45.390Z,81.33
2022-11-24T07:04:13.639Z,81.59
2022-11-24T07:06:42.130Z,81.28
2022-11-24T07:09:10.179Z,81.57
2022-11-24T07:11:38.111Z,81.12
2022-11-24T07:14:06.543Z,80.90
2022-11-24T07:16:35.993Z,81.28
2022-11-24T07:19:03.896Z,80.40
2022-11-24T07:21:31.836Z,80.14
2022-11-24T07:23:59.961Z,80.12
2022-11-24T07:26:28.325Z,80.28
2022-11-24T07:28:56.248Z,79.96
2022-11-24T07:31:25.752Z,80.21
2022-11-24T07:33:58.097Z,79.80
2022-11-24T07:36:26.213Z,79.67
2022-11-24T07:38:54.021Z,79.50
2022-11-24T07:41:23.465Z,79.02
2022-11-24T07:43:51.678Z,78.79
2022-11-24T07:46:20.293Z,78.87
2022-11-24T07:48:48.483Z,78.31
2022-11-24T07:51:17.645Z,78.05
2022-11-24T07:53:46.135Z,78.15
2022-11-24T07:56:13.915Z,78.63
2022-11-24T07:58:41.984Z,78.50
2022-11-24T08:01:11.320Z,78.02
2022-11-24T08:03:39.247Z,77.56
2022-11-24T08:06:23.588Z,77.27
2022-11-24T08:08:53.693Z,77.33
2022-11-24T08:11:21.771Z,77.33
2022-11-24T08:13:49.623Z,77.50
2022-11-24T08:16:18.603Z,77.95
2022-11-24T08:18:50.119Z,77.78
2022-11-24T08:21:18.082Z,78.52
2022-11-24T08:23:46.490Z,78.55
2022-11-24T08:26:17.973Z,78.99
2022-11-24T08:28:46.515Z,79.22
2022-11-24T08:31:15.257Z,78.92
2022-11-24T08:33:43.593Z,78.69
2022-11-24T08:36:12.436Z,78.70
2022-11-24T08:38:40.848Z,78.57
2022-11-24T08:41:09.949Z,78.42
2022-11-24T08:43:39.214Z,77.93
2022-11-24T08:46:07.929Z,77.24
2022-11-24T08:48:36.251Z,77.33
2022-11-24T08:51:07.574Z,76.93
2022-11-24T08:53:35.580Z,77.11
2022-11-24T08:56:04.301Z,76.14
2022-11-24T08:58:32.614Z,75.61
2022-11-24T09:01:06.030Z,75.63
2022-11-24T09:03:34.370Z,75.48
2022-11-24T09:06:02.502Z,75.49
2022-11-24T09:08:30.386Z,75.44
2022-11-24T09:11:00.101Z,75.41
2022-11-24T09:13:27.947Z,75.44
2022-11-24T09:15:56.177Z,75.63
2022-11-24T09:18:30.074Z,75.64
2022-11-24T09:21:06.624Z,75.95
2022-11-24T09:23:34.644Z,75.67
2022-11-24T09:26:05.907Z,75.70
2022-11-24T09:28:34.017Z,76.34
2022-11-24T09:31:02.585Z,76.24
2022-11-24T09:33:32.573Z,76.38
2022-11-24T09:36:00.664Z,76.45
2022-11-24T09:38:28.785Z,76.30
2022-11-24T09:40:56.876Z,76.44
2022-11-24T09:43:29.169Z,76.89
2022-11-24T09:46:06.339Z,77.40
2022-11-24T09:48:37.897Z,77.17
2022-11-24T09:51:06.705Z,76.79
2022-11-24T09:53:37.914Z,76.50
2022-11-24T09:56:11.293Z,76.42
2022-11-24T09:58:43.402Z,76.12
2022-11-24T10:01:16.263Z,75.21
2022-11-24T10:03:47.202Z,75.55
2022-11-24T10:06:21.295Z,75.29
2022-11-24T10:09:00.492Z,74.36
2022-11-24T10:11:32.736Z,73.68
2022-11-24T10:14:08.451Z,73.63
2022-11-24T10:16:43.205Z,74.38
2022-11-24T10:19:21.856Z,74.89
2022-11-24T10:21:55.973Z,75.14
2022-11-24T10:24:32.127Z,75.30
2022-11-24T10:27:02.810Z,75.03
2022-11-24T10:29:34.410Z,74.53
2022-11-24T10:32:05.015Z,74.27
2022-11-24T10:34:35.673Z,73.75
2022-11-24T10:37:06.871Z,73.59
2022-11-24T10:39:37.824Z,73.01
2022-11-24T10:42:08.806Z,72.32
2022-11-24T10:44:36.804Z,73.68
2022-11-24T10:47:18.988Z,74.24
2022-11-24T10:49:58.498Z,74.23
2022-11-24T10:52:29.835Z,74.23
2022-11-24T10:54:58.702Z,73.95
2022-11-24T10:57:36.275Z,73.64
2022-11-24T11:00:32.229Z,73.64
2022-11-24T11:03:12.831Z,73.31
2022-11-24T11:05:43.380Z,72.97
2022-11-24T11:08:16.938Z,69.58
2022-11-24T11:10:45.662Z,64.65
2022-11-24T11:13:23.244Z,65.34
2022-11-24T11:15:51.813Z,67.00
2022-11-24T11:18:20.669Z,67.72
2022-11-24T11:20:54.032Z,67.19
2022-11-24T11:23:23.608Z,64.97
2022-11-24T11:25:51.403Z,64.23
2022-11-24T11:28:24.053Z,65.77
2022-11-24T11:34:04.676Z,66.20
2022-11-24T11:36:35.728Z,63.33
2022-11-24T11:39:04.529Z,62.66
2022-11-24T11:41:35.116Z,59.83
2022-11-24T11:44:08.177Z,59.79
2022-11-24T11:46:36.173Z,59.62
2022-11-24T11:49:04.192Z,58.88
2022-11-24T11:51:45.792Z,59.57
2022-11-24T11:54:19.552Z,58.49
2022-11-24T11:56:49.227Z,60.44
2022-11-24T11:59:35.014Z,61.75
2022-11-24T12:02:21.906Z,62.55
2022-11-24T12:04:53.434Z,63.37
2022-11-24T12:07:39.462Z,64.52
2022-11-24T12:10:13.171Z,64.23
2022-11-24T12:12:47.909Z,63.95
2022-11-24T12:15:21.125Z,62.40
2022-11-24T12:17:54.586Z,60.46
2022-11-24T12:20:33.615Z,58.90
2022-11-24T12:23:07.189Z,59.73
2022-11-24T12:25:39.796Z,60.46
2022-11-24T12:28:14.641Z,62.13
2022-11-24T12:30:45.073Z,63.38
2022-11-24T12:33:18.800Z,62.67
2022-11-24T12:35:47.468Z,63.72
2022-11-24T12:38:32.947Z,63.68
2022-11-24T12:44:17.719Z,64.32
2022-11-24T12:46:50.717Z,63.94
2022-11-24T12:49:22.563Z,63.88
2022-11-24T12:51:55.829Z,64.50
2022-11-24T12:54:25.076Z,64.95
2022-11-24T12:56:59.746Z,66.11
2022-11-24T12:59:33.286Z,66.59
2022-11-24T13:02:05.409Z,67.17
2022-11-24T13:04:37.229Z,67.15
2022-11-24T13:07:10.259Z,67.19
2022-11-24T13:09:38.272Z,67.41
2022-11-24T13:12:12.215Z,67.19
2022-11-24T13:14:40.842Z,66.75
2022-11-24T13:17:39.602Z,66.93
2022-11-24T13:20:16.908Z,66.80
2022-11-24T13:22:49.752Z,66.66
2022-11-24T13:25:20.061Z,66.70
2022-11-24T13:27:52.200Z,67.45
2022-11-24T13:30:50.903Z,67.48
2022-11-24T13:33:27.896Z,66.72
2022-11-24T13:36:29.701Z,65.32
2022-11-24T13:38:58.003Z,64.41
2022-11-24T13:41:44.526Z,63.33
2022-11-24T13:44:24.371Z,59.57
2022-11-24T13:47:05.292Z,55.57
2022-11-24T13:49:41.115Z,51.44
2022-11-24T13:52:27.580Z,55.81
2022-11-24T13:54:55.658Z,59.37
2022-11-24T13:57:34.133Z,58.25
2022-11-24T14:00:04.196Z,55.49
2022-11-24T14:02:34.494Z,51.44
2022-11-24T14:05:02.385Z,51.12
2022-11-24T14:07:31.446Z,50.15
2022-11-24T14:09:59.545Z,50.28
2022-11-24T14:12:31.306Z,52.02
2022-11-24T14:15:21.293Z,54.73
2022-11-24T14:17:49.342Z,58.30
2022-11-24T14:20:18.080Z,60.04
2022-11-24T14:22:45.877Z,61.85
2022-11-24T14:25:20.985Z,63.49
2022-11-24T14:27:48.965Z,64.48
2022-11-24T14:30:20.467Z,65.29
2022-11-24T14:32:55.652Z,66.16
2022-11-24T14:35:25.561Z,66.81
2022-11-24T14:37:53.469Z,67.14
2022-11-24T14:40:40.658Z,67.17
2022-11-24T14:43:16.852Z,67.68
2022-11-24T14:45:50.387Z,68.48
2022-11-24T14:48:21.205Z,68.08
2022-11-24T14:50:49.049Z,68.67
2022-11-24T14:53:24.682Z,69.02
2022-11-24T14:56:10.952Z,69.38
2022-11-24T14:58:42.260Z,69.92
2022-11-24T15:01:22.526Z,70.53
2022-11-24T15:04:11.676Z,70.90
2022-11-24T15:06:41.735Z,71.28
2022-11-24T15:09:20.526Z,71.64
2022-11-24T15:11:49.604Z,72.00
2022-11-24T15:14:30.549Z,72.58
2022-11-24T15:17:00.457Z,72.74
2022-11-24T15:19:32.277Z,73.05
2022-11-24T15:22:00.444Z,73.55
2022-11-24T15:24:28.313Z,73.46
2022-11-24T15:27:00.037Z,73.84
2022-11-24T15:29:28.229Z,74.34
2022-11-24T15:31:56.188Z,75.12
2022-11-24T15:34:25.353Z,75.45
2022-11-24T15:36:53.117Z,76.20
2022-11-24T15:39:20.956Z,76.92
2022-11-24T15:41:48.921Z,76.89
2022-11-24T15:44:16.704Z,77.43
2022-11-24T15:46:44.541Z,77.71
2022-11-24T15:49:14.821Z,77.49
2022-11-24T15:51:49.004Z,77.73
2022-11-24T15:54:18.378Z,77.80
2022-11-24T15:56:46.209Z,78.63
2022-11-24T15:59:20.340Z,79.53
2022-11-24T16:01:49.854Z,80.04
2022-11-24T16:04:18.071Z,79.99
2022-11-24T16:06:47.907Z,80.06
2022-11-24T16:09:16.708Z,80.93
2022-11-24T16:11:44.599Z,80.74
2022-11-24T16:14:12.698Z,81.21
2022-11-24T16:16:41.297Z,81.95
2022-11-24T16:19:09.546Z,81.83
2022-11-24T16:21:37.328Z,82.29
2022-11-24T16:24:06.751Z,83.38
2022-11-24T16:26:34.705Z,83.09
2022-11-24T16:29:02.522Z,83.71
2022-11-24T16:31:30.422Z,84.05
2022-11-24T16:33:58.292Z,84.21
2022-11-24T16:36:26.705Z,85.02
2022-11-24T16:38:54.871Z,85.20
2022-11-24T16:41:24.219Z,85.31
2022-11-24T16:43:52.938Z,85.40
2022-11-24T16:46:21.999Z,86.22
2022-11-24T16:48:50.844Z,86.22
2022-11-24T16:51:19.729Z,86.41
2022-11-24T16:53:47.522Z,86.63
2022-11-24T16:56:16.368Z,87.72
2022-11-24T16:58:45.499Z,88.21
2022-11-24T17:01:13.888Z,88.35
2022-11-24T17:03:42.290Z,88.43
2022-11-24T17:06:11.222Z,88.62
2022-11-24T17:08:39.808Z,88.96
2022-11-24T17:11:07.843Z,89.31
2022-11-24T17:13:35.876Z,89.56
2022-11-24T17:16:06.388Z,89.66
2022-11-24T17:18:34.666Z,90.08
2022-11-24T17:21:07.868Z,89.92
2022-11-24T17:23:37.659Z,90.60
2022-11-24T17:26:06.343Z,89.85
2022-11-24T17:28:34.792Z,89.99
2022-11-24T17:31:08.152Z,89.65
2022-11-24T17:33:36.142Z,89.94
2022-11-24T17:36:04.582Z,89.37
2022-11-24T17:38:32.456Z,88.87
2022-11-24T17:41:00.254Z,89.69
2022-11-24T17:43:28.092Z,89.93
2022-11-24T17:45:57.073Z,89.81
2022-11-24T17:48:26.396Z,90.28
2022-11-24T17:50:59.741Z,90.23
2022-11-24T17:53:27.754Z,89.53
2022-11-24T17:55:55.584Z,88.49
2022-11-24T17:58:23.753Z,88.15
2022-11-24T18:00:52.537Z,86.48
2022-11-24T18:03:20.395Z,86.37
2022-11-24T18:05:50.165Z,84.70
2022-11-24T18:08:18.025Z,83.84
2022-11-24T18:10:45.848Z,82.63
2022-11-24T18:13:27.636Z,81.67
2022-11-24T18:16:01.922Z,81.06
2022-11-24T18:18:30.826Z,81.21
2022-11-24T18:21:00.612Z,79.97
2022-11-24T18:23:29.770Z,80.93
2022-11-24T18:25:58.550Z,79.86
2022-11-24T18:28:26.612Z,79.21
2022-11-24T18:30:54.744Z,79.31
2022-11-24T18:33:22.543Z,79.88
2022-11-24T18:35:56.660Z,78.88
2022-11-24T18:38:26.098Z,78.65
2022-11-24T18:40:54.749Z,77.84
2022-11-24T18:43:22.667Z,77.81
2022-11-24T18:45:50.567Z,77.36
2022-11-24T18:48:18.510Z,77.22
2022-11-24T18:50:50.383Z,76.41
2022-11-24T18:53:18.524Z,76.01
2022-11-24T18:55:56.077Z,76.11
2022-11-24T18:58:26.833Z,76.31
2022-11-24T19:00:55.060Z,76.11
2022-11-24T19:03:23.015Z,76.10
2022-11-24T19:05:50.897Z,76.22
2022-11-24T19:08:18.721Z,75.12
2022-11-24T19:10:46.684Z,75.57
2022-11-24T19:13:16.007Z,75.80
2022-11-24T19:15:43.763Z,76.01
2022-11-24T19:18:11.553Z,75.95
2022-11-24T19:20:39.379Z,76.78
2022-11-24T19:23:07.239Z,76.49
2022-11-24T19:25:35.183Z,76.42
2022-11-24T19:28:02.985Z,76.93
2022-11-24T19:30:32.111Z,76.62
2022-11-24T19:32:59.938Z,76.88
2022-11-24T19:35:27.810Z,77.75
2022-11-24T19:37:55.832Z,78.95
2022-11-24T19:40:23.640Z,78.37
2022-11-24T19:42:51.533Z,79.32
2022-11-24T19:45:19.519Z,79.08
2022-11-24T19:47:48.768Z,79.01
2022-11-24T19:50:16.849Z,78.03
2022-11-24T19:52:44.771Z,78.47
2022-11-24T19:55:13.572Z,78.45
2022-11-24T19:57:44.150Z,78.74
2022-11-24T20:00:12.891Z,77.83
2022-11-24T20:02:41.378Z,77.71
2022-11-24T20:05:12.617Z,77.57
2022-11-24T20:07:44.640Z,77.63
2022-11-24T20:10:12.811Z,78.01
2022-11-24T20:12:40.807Z,77.98
2022-11-24T20:15:09.273Z,77.29
2022-11-24T20:17:37.180Z,78.09
2022-11-24T20:20:05.928Z,77.96
2022-11-24T20:22:35.465Z,78.17
2022-11-24T20:25:03.298Z,77.72
2022-11-24T20:27:31.212Z,77.50
2022-11-24T20:29:58.989Z,77.70
2022-11-24T20:32:26.800Z,78.39
2022-11-24T20:34:54.762Z,78.72
2022-11-24T20:37:23.280Z,78.30
2022-11-24T20:39:52.680Z,79.52
2022-11-24T20:42:20.476Z,79.66
2022-11-24T20:44:48.259Z,80.24
2022-11-24T20:47:18.661Z,80.33
2022-11-24T20:49:46.504Z,80.67
2022-11-24T20:52:14.691Z,81.21
2022-11-24T20:54:46.741Z,80.70
2022-11-24T20:57:16.568Z,81.46
2022-11-24T20:59:44.857Z,82.14
2022-11-24T21:02:12.723Z,82.05
2022-11-24T21:04:40.639Z,83.38
2022-11-24T21:07:13.339Z,82.89
2022-11-24T21:09:41.633Z,83.46
2022-11-24T21:12:12.552Z,83.66
2022-11-24T21:14:41.715Z,84.16
2022-11-24T21:17:09.828Z,83.58
2022-11-24T21:19:38.201Z,83.56
2022-11-24T21:22:06.305Z,83.18
2022-11-24T21:24:34.623Z,83.29
2022-11-24T21:27:03.589Z,83.18
2022-11-24T21:29:31.610Z,83.39
2022-11-24T21:32:00.892Z,82.82
2022-11-24T21:34:28.803Z,82.71
2022-11-24T21:36:56.740Z,83.23
2022-11-24T21:39:24.556Z,82.47
2022-11-24T21:41:52.391Z,82.91
2022-11-24T21:44:20.256Z,83.29
2022-11-24T21:46:54.305Z,83.36
2022-11-24T21:49:25.364Z,84.10
2022-11-24T21:51:55.667Z,84.44
2022-11-24T21:54:24.278Z,84.89
2022-11-24T21:56:52.094Z,84.89
2022-11-24T21:59:20.724Z,85.58
2022-11-24T22:01:48.756Z,86.01
2022-11-24T22:04:16.588Z,86.21
2022-11-24T22:06:46.726Z,86.42
2022-11-24T22:09:18.422Z,86.67
2022-11-24T22:11:47.985Z,87.28
2022-11-24T22:14:17.256Z,87.80
2022-11-24T22:16:45.341Z,88.42
2022-11-24T22:19:13.190Z,88.24
2022-11-24T22:21:40.976Z,88.64
2022-11-24T22:24:10.349Z,89.43
2022-11-24T22:26:38.148Z,89.22
2022-11-24T22:29:07.554Z,89.16
2022-11-24T22:31:35.357Z,88.87
2022-11-24T22:34:03.441Z,88.20
2022-11-24T22:36:31.644Z,88.08
2022-11-24T22:39:02.858Z,87.58
2022-11-24T22:41:32.873Z,87.98
2022-11-24T22:44:00.671Z,88.37
2022-11-24T22:46:29.329Z,88.10
2022-11-24T22:48:59.033Z,88.12
2022-11-24T22:51:28.104Z,88.33
2022-11-24T22:53:57.064Z,88.48
2022-11-24T22:56:25.170Z,88.76
2022-11-24T22:58:54.388Z,89.27
2022-11-24T23:01:23.321Z,89.23
2022-11-24T23:03:53.589Z,89.23
2022-11-24T23:06:22.188Z,89.49
2022-11-24T23:08:50.460Z,88.55
2022-11-24T23:11:19.091Z,88.97
2022-11-24T23:13:47.213Z,88.58
2022-11-24T23:16:17.287Z,88.19
2022-11-24T23:18:48.767Z,87.81
2022-11-24T23:21:20.233Z,87.23
2022-11-24T23:23:48.713Z,86.32
2022-11-24T23:26:17.547Z,85.91
2022-11-24T23:28:45.403Z,85.57
2022-11-24T23:31:14.270Z,85.94
2022-11-24T23:33:43.846Z,85.51
2022-11-24T23:36:12.977Z,84.76
2022-11-24T23:38:41.128Z,84.98
2022-11-24T23:41:10.747Z,84.72
2022-11-24T23:43:39.556Z,84.48
2022-11-24T23:46:08.569Z,84.60
2022-11-24T23:48:37.193Z,83.53
2022-11-24T23:51:07.277Z,83.74
2022-11-24T23:53:36.120Z,83.58
2022-11-24T23:56:04.133Z,83.73
2022-11-24T23:58:32.252Z,83.21
